Leo — JD3199 — position and weather

sailwx.info

Track history (hours):
 
Tides and Currents Weather Stations Pressure Air Temp Water Temp Dewpoint Dewpoint Depression Visibility Wind Speed Wind Dir Waves Ship Positions

Leo

Last reported at 2018-Jan-23 00:01 UTC. Time now 2018-Jan-23 00:13 UTC.
Position N 35°29' E 139°41'.

Length 27 m; draft 2.8 m.

Type: Pilot. MMSI: 431002392.

Date/timePositionNaut miles runAvg speedWind from/ knotsBaromVisibWave heightAir tempDewpointWater temp
2018-Jan-23 00:01N 35°29' E 139°41'3 5.5
2018-Jan-22 23:30N 35°31' E 139°44'3 5.8
2018-Jan-22 23:00N 35°28' E 139°42'1 1.4
2018-Jan-22 22:30N 35°28' E 139°43'3 5.7
2018-Jan-22 22:00N 35°27' E 139°40'0 0.0
2018-Jan-22 21:30N 35°27' E 139°40'0 0.0
2018-Jan-21 03:36N 35°27' E 139°40'0 1.6
2018-Jan-21 03:31N 35°27' E 139°40'510.1
2018-Jan-21 03:01N 35°22' E 139°41'713.5
2018-Jan-21 02:30N 35°16' E 139°45'3 5.0
2018-Jan-21 02:00N 35°14' E 139°46'612.7
2018-Jan-21 01:30N 35°19' E 139°43'4 7.5
2018-Jan-21 01:01N 35°23' E 139°43'2 4.0
2018-Jan-21 00:30N 35°25' E 139°43'3 6.6
2018-Jan-21 00:00N 35°27' E 139°40'0 0.0
2018-Jan-20 08:16N 35°27' E 139°40'2 8.5
2018-Jan-20 08:00N 35°27' E 139°42'510.0
2018-Jan-20 07:30N 35°22' E 139°45'511.2
2018-Jan-20 07:01N 35°17' E 139°46'611.6
2018-Jan-20 06:30N 35°11' E 139°47'0 0.9
2018-Jan-20 05:59N 35°11' E 139°47'612.2
2018-Jan-20 05:30N 35°17' E 139°44'713.4
2018-Jan-20 05:00N 35°23' E 139°42'4 8.4
2018-Jan-20 04:31N 35°27' E 139°40'0 0.0
2018-Jan-19 00:26N 35°27' E 139°40'410.2
2018-Jan-19 00:00N 35°25' E 139°45'4 8.3
2018-Jan-18 23:30N 35°21' E 139°45'5 9.3
2018-Jan-18 23:00N 35°17' E 139°46'5 9.7
2018-Jan-18 22:30N 35°12' E 139°47'0 0.4
2018-Jan-18 22:00N 35°12' E 139°47'713.3
2018-Jan-18 21:31N 35°18' E 139°44'713.2
2018-Jan-18 21:01N 35°24' E 139°42'3 6.5
2018-Jan-18 20:31N 35°27' E 139°40'0 0.0
2018-Jan-18 20:00N 35°27' E 139°40'  
Track history (hours):
 
Tides and Currents Weather Stations Pressure Air Temp Water Temp Dewpoint Dewpoint Depression Visibility Wind Speed Wind Dir Waves Ship Positions

Leo

Last reported at 2018-Jan-23 00:01 UTC. Time now 2018-Jan-23 00:13 UTC.
Position N 35°29' E 139°41'.

Length 27 m; draft 2.8 m.

Type: Pilot. MMSI: 431002392.

Date/timePositionNaut miles runAvg speedWind from/ knotsBaromVisibWave heightAir tempDewpointWater temp
2018-Jan-23 00:01N 35°29' E 139°41'3 5.5
2018-Jan-22 23:30N 35°31' E 139°44'3 5.8
2018-Jan-22 23:00N 35°28' E 139°42'1 1.4
2018-Jan-22 22:30N 35°28' E 139°43'3 5.7
2018-Jan-22 22:00N 35°27' E 139°40'0 0.0
2018-Jan-22 21:30N 35°27' E 139°40'0 0.0
2018-Jan-21 03:36N 35°27' E 139°40'0 1.6
2018-Jan-21 03:31N 35°27' E 139°40'510.1
2018-Jan-21 03:01N 35°22' E 139°41'713.5
2018-Jan-21 02:30N 35°16' E 139°45'3 5.0
2018-Jan-21 02:00N 35°14' E 139°46'612.7
2018-Jan-21 01:30N 35°19' E 139°43'4 7.5
2018-Jan-21 01:01N 35°23' E 139°43'2 4.0
2018-Jan-21 00:30N 35°25' E 139°43'3 6.6
2018-Jan-21 00:00N 35°27' E 139°40'0 0.0
2018-Jan-20 08:16N 35°27' E 139°40'2 8.5
2018-Jan-20 08:00N 35°27' E 139°42'510.0
2018-Jan-20 07:30N 35°22' E 139°45'511.2
2018-Jan-20 07:01N 35°17' E 139°46'611.6
2018-Jan-20 06:30N 35°11' E 139°47'0 0.9
2018-Jan-20 05:59N 35°11' E 139°47'612.2
2018-Jan-20 05:30N 35°17' E 139°44'713.4
2018-Jan-20 05:00N 35°23' E 139°42'4 8.4
2018-Jan-20 04:31N 35°27' E 139°40'0 0.0
2018-Jan-19 00:26N 35°27' E 139°40'410.2
2018-Jan-19 00:00N 35°25' E 139°45'4 8.3
2018-Jan-18 23:30N 35°21' E 139°45'5 9.3
2018-Jan-18 23:00N 35°17' E 139°46'5 9.7
2018-Jan-18 22:30N 35°12' E 139°47'0 0.4
2018-Jan-18 22:00N 35°12' E 139°47'713.3
2018-Jan-18 21:31N 35°18' E 139°44'713.2
2018-Jan-18 21:01N 35°24' E 139°42'3 6.5
2018-Jan-18 20:31N 35°27' E 139°40'0 0.0
2018-Jan-18 20:00N 35°27' E 139°40'  

Dump ship's entire track history